sensor_id;sensor_type;location;lat;lon;timestamp;P1;P2;P0
56495;PMS5003;42804;55.762;38.084;2022-08-19T00:00:01;17.75;17.00;13.75
56495;PMS5003;42804;55.762;38.084;2022-08-19T00:02:31;27.50;23.75;17.25
56495;PMS5003;42804;55.762;38.084;2022-08-19T00:04:59;21.50;18.50;14.00
56495;PMS5003;42804;55.762;38.084;2022-08-19T00:07:28;27.25;25.25;17.25
56495;PMS5003;42804;55.762;38.084;2022-08-19T00:09:58;27.25;24.25;17.25
56495;PMS5003;42804;55.762;38.084;2022-08-19T00:12:26;26.75;25.00;18.50
56495;PMS5003;42804;55.762;38.084;2022-08-19T00:14:54;27.00;25.25;18.00
56495;PMS5003;42804;55.762;38.084;2022-08-19T00:17:22;25.50;22.25;17.00
56495;PMS5003;42804;55.762;38.084;2022-08-19T00:19:51;26.25;25.25;18.00
56495;PMS5003;42804;55.762;38.084;2022-08-19T00:22:19;30.25;27.25;16.00
56495;PMS5003;42804;55.762;38.084;2022-08-19T00:24:47;20.50;18.25;13.00
56495;PMS5003;42804;55.762;38.084;2022-08-19T00:27:18;28.00;26.00;16.50
56495;PMS5003;42804;55.762;38.084;2022-08-19T00:29:52;26.75;25.50;17.75
56495;PMS5003;42804;55.762;38.084;2022-08-19T00:32:20;25.50;22.25;17.00
56495;PMS5003;42804;55.762;38.084;2022-08-19T00:34:49;29.75;27.25;18.50
56495;PMS5003;42804;55.762;38.084;2022-08-19T00:37:20;25.00;23.75;16.50
56495;PMS5003;42804;55.762;38.084;2022-08-19T00:39:49;30.75;28.50;20.25
56495;PMS5003;42804;55.762;38.084;2022-08-19T00:42:20;18.50;17.25;11.00
56495;PMS5003;42804;55.762;38.084;2022-08-19T00:44:48;30.00;26.00;18.00
56495;PMS5003;42804;55.762;38.084;2022-08-19T00:47:17;24.25;19.25;13.00
56495;PMS5003;42804;55.762;38.084;2022-08-19T00:49:47;23.50;22.25;15.00
56495;PMS5003;42804;55.762;38.084;2022-08-19T00:52:19;22.25;20.00;14.50
56495;PMS5003;42804;55.762;38.084;2022-08-19T00:54:48;27.00;25.50;18.75
56495;PMS5003;42804;55.762;38.084;2022-08-19T00:57:20;22.00;22.00;17.50
56495;PMS5003;42804;55.762;38.084;2022-08-19T00:59:51;22.75;22.50;17.25
56495;PMS5003;42804;55.762;38.084;2022-08-19T01:02:29;28.75;28.25;20.25
56495;PMS5003;42804;55.762;38.084;2022-08-19T01:04:58;13.00;12.00;9.00
56495;PMS5003;42804;55.762;38.084;2022-08-19T01:07:27;27.75;27.50;19.75
56495;PMS5003;42804;55.762;38.084;2022-08-19T01:10:04;24.25;22.75;18.50
56495;PMS5003;42804;55.762;38.084;2022-08-19T01:12:34;29.75;27.25;18.00
56495;PMS5003;42804;55.762;38.084;2022-08-19T01:15:03;24.00;23.00;18.75
56495;PMS5003;42804;55.762;38.084;2022-08-19T01:17:31;29.50;28.25;20.25
56495;PMS5003;42804;55.762;38.084;2022-08-19T01:19:59;30.50;27.00;19.25
56495;PMS5003;42804;55.762;38.084;2022-08-19T01:22:30;27.25;26.25;20.75
56495;PMS5003;42804;55.762;38.084;2022-08-19T01:24:59;28.75;27.75;19.00
56495;PMS5003;42804;55.762;38.084;2022-08-19T01:27:36;31.00;29.25;20.50
56495;PMS5003;42804;55.762;38.084;2022-08-19T01:30:10;31.75;28.00;19.25
56495;PMS5003;42804;55.762;38.084;2022-08-19T01:32:39;23.00;21.00;13.50
56495;PMS5003;42804;55.762;38.084;2022-08-19T01:35:07;27.00;23.25;17.00
56495;PMS5003;42804;55.762;38.084;2022-08-19T01:37:44;25.00;22.25;16.25
56495;PMS5003;42804;55.762;38.084;2022-08-19T01:40:12;26.75;25.25;19.00
56495;PMS5003;42804;55.762;38.084;2022-08-19T01:42:40;23.50;22.75;16.00
56495;PMS5003;42804;55.762;38.084;2022-08-19T01:45:09;23.50;23.50;16.25
56495;PMS5003;42804;55.762;38.084;2022-08-19T01:47:37;28.00;26.00;18.50
56495;PMS5003;42804;55.762;38.084;2022-08-19T01:50:07;25.75;22.75;16.50
56495;PMS5003;42804;55.762;38.084;2022-08-19T01:52:35;22.50;20.75;17.50
56495;PMS5003;42804;55.762;38.084;2022-08-19T01:55:07;24.25;20.00;14.00
56495;PMS5003;42804;55.762;38.084;2022-08-19T01:57:36;23.75;22.50;15.50
56495;PMS5003;42804;55.762;38.084;2022-08-19T02:00:06;22.75;21.25;16.25
56495;PMS5003;42804;55.762;38.084;2022-08-19T02:02:37;25.00;22.25;16.00
56495;PMS5003;42804;55.762;38.084;2022-08-19T02:05:10;16.25;16.25;13.50
56495;PMS5003;42804;55.762;38.084;2022-08-19T02:07:38;19.25;17.50;14.00
56495;PMS5003;42804;55.762;38.084;2022-08-19T02:10:10;24.25;24.25;16.75
56495;PMS5003;42804;55.762;38.084;2022-08-19T02:12:41;21.75;21.50;16.00
56495;PMS5003;42804;55.762;38.084;2022-08-19T02:15:10;19.75;18.50;13.50
56495;PMS5003;42804;55.762;38.084;2022-08-19T02:17:38;12.75;12.75;11.00
56495;PMS5003;42804;55.762;38.084;2022-08-19T02:20:07;17.00;16.25;14.50
56495;PMS5003;42804;55.762;38.084;2022-08-19T02:22:35;23.25;20.25;14.00
56495;PMS5003;42804;55.762;38.084;2022-08-19T02:25:03;16.00;16.00;9.00
56495;PMS5003;42804;55.762;38.084;2022-08-19T02:27:34;20.00;19.00;14.00
56495;PMS5003;42804;55.762;38.084;2022-08-19T02:30:02;19.25;17.00;14.00
56495;PMS5003;42804;55.762;38.084;2022-08-19T02:32:31;17.25;16.50;11.25
56495;PMS5003;42804;55.762;38.084;2022-08-19T02:35:10;20.50;19.00;14.00
56495;PMS5003;42804;55.762;38.084;2022-08-19T02:37:38;18.50;16.25;11.50
56495;PMS5003;42804;55.762;38.084;2022-08-19T02:40:24;14.50;12.50;9.25
56495;PMS5003;42804;55.762;38.084;2022-08-19T02:42:53;22.75;20.50;15.00
56495;PMS5003;42804;55.762;38.084;2022-08-19T02:45:21;21.25;19.00;13.25
56495;PMS5003;42804;55.762;38.084;2022-08-19T02:47:50;16.75;16.75;10.25
56495;PMS5003;42804;55.762;38.084;2022-08-19T02:50:18;20.25;19.00;13.50
56495;PMS5003;42804;55.762;38.084;2022-08-19T02:52:46;21.00;18.25;14.00
56495;PMS5003;42804;55.762;38.084;2022-08-19T02:55:14;22.00;21.25;15.75
56495;PMS5003;42804;55.762;38.084;2022-08-19T02:57:42;18.00;16.50;11.25
56495;PMS5003;42804;55.762;38.084;2022-08-19T03:00:13;19.75;18.50;13.75
56495;PMS5003;42804;55.762;38.084;2022-08-19T03:02:41;21.00;19.50;14.00
56495;PMS5003;42804;55.762;38.084;2022-08-19T03:05:09;12.00;11.00;5.25
56495;PMS5003;42804;55.762;38.084;2022-08-19T03:07:38;20.50;19.50;13.50
56495;PMS5003;42804;55.762;38.084;2022-08-19T03:10:06;25.00;23.50;16.75
56495;PMS5003;42804;55.762;38.084;2022-08-19T03:12:35;20.00;19.75;15.00
56495;PMS5003;42804;55.762;38.084;2022-08-19T03:15:04;25.00;20.75;15.25
56495;PMS5003;42804;55.762;38.084;2022-08-19T03:17:35;23.50;22.50;16.00
56495;PMS5003;42804;55.762;38.084;2022-08-19T03:20:04;16.75;16.00;11.25
56495;PMS5003;42804;55.762;38.084;2022-08-19T03:22:41;19.25;17.00;11.50
56495;PMS5003;42804;55.762;38.084;2022-08-19T03:25:09;21.75;19.75;14.00
56495;PMS5003;42804;55.762;38.084;2022-08-19T03:27:38;24.75;21.75;17.75
56495;PMS5003;42804;55.762;38.084;2022-08-19T03:30:06;19.50;14.25;7.75
56495;PMS5003;42804;55.762;38.084;2022-08-19T03:32:38;19.75;17.00;13.00
56495;PMS5003;42804;55.762;38.084;2022-08-19T03:35:11;19.25;18.50;13.50
56495;PMS5003;42804;55.762;38.084;2022-08-19T03:37:39;20.25;19.75;11.00
56495;PMS5003;42804;55.762;38.084;2022-08-19T03:40:07;20.00;18.75;14.75
56495;PMS5003;42804;55.762;38.084;2022-08-19T03:42:42;22.25;19.75;14.50
56495;PMS5003;42804;55.762;38.084;2022-08-19T03:45:15;19.50;17.50;13.00
56495;PMS5003;42804;55.762;38.084;2022-08-19T03:47:44;19.25;17.75;13.00
56495;PMS5003;42804;55.762;38.084;2022-08-19T03:50:13;19.25;16.25;12.25
56495;PMS5003;42804;55.762;38.084;2022-08-19T03:52:41;12.00;9.00;5.25
56495;PMS5003;42804;55.762;38.084;2022-08-19T03:55:12;18.00;17.25;13.00
56495;PMS5003;42804;55.762;38.084;2022-08-19T03:57:40;17.00;14.75;10.25
56495;PMS5003;42804;55.762;38.084;2022-08-19T04:00:09;5.00;4.25;1.00
56495;PMS5003;42804;55.762;38.084;2022-08-19T04:02:38;12.00;11.50;8.75
56495;PMS5003;42804;55.762;38.084;2022-08-19T04:05:08;18.75;17.50;11.00
56495;PMS5003;42804;55.762;38.084;2022-08-19T04:07:36;15.50;14.00;10.00
56495;PMS5003;42804;55.762;38.084;2022-08-19T04:10:05;12.00;12.00;10.50
56495;PMS5003;42804;55.762;38.084;2022-08-19T04:12:36;8.00;7.50;6.00
56495;PMS5003;42804;55.762;38.084;2022-08-19T04:15:05;10.75;9.75;8.00
56495;PMS5003;42804;55.762;38.084;2022-08-19T04:17:35;0.25;0.00;0.00
56495;PMS5003;42804;55.762;38.084;2022-08-19T04:20:03;12.00;11.25;7.75
56495;PMS5003;42804;55.762;38.084;2022-08-19T04:22:34;12.50;11.75;7.50
56495;PMS5003;42804;55.762;38.084;2022-08-19T04:25:02;14.75;13.25;10.00
56495;PMS5003;42804;55.762;38.084;2022-08-19T04:27:30;13.50;12.50;9.00
56495;PMS5003;42804;55.762;38.084;2022-08-19T04:29:59;13.25;13.25;10.50
56495;PMS5003;42804;55.762;38.084;2022-08-19T04:32:28;16.00;15.25;11.25
56495;PMS5003;42804;55.762;38.084;2022-08-19T04:34:58;12.00;11.00;7.75
56495;PMS5003;42804;55.762;38.084;2022-08-19T04:37:46;12.00;11.50;8.50
56495;PMS5003;42804;55.762;38.084;2022-08-19T04:40:14;12.25;11.50;6.50
56495;PMS5003;42804;55.762;38.084;2022-08-19T04:42:59;14.25;13.50;10.75
56495;PMS5003;42804;55.762;38.084;2022-08-19T04:45:28;11.75;11.00;6.00
56495;PMS5003;42804;55.762;38.084;2022-08-19T04:48:09;14.50;13.75;10.00
56495;PMS5003;42804;55.762;38.084;2022-08-19T04:50:54;13.00;13.00;9.00
56495;PMS5003;42804;55.762;38.084;2022-08-19T04:53:26;15.25;13.00;8.50
56495;PMS5003;42804;55.762;38.084;2022-08-19T04:56:04;5.00;5.00;4.00
56495;PMS5003;42804;55.762;38.084;2022-08-19T04:58:33;14.00;13.00;11.25
56495;PMS5003;42804;55.762;38.084;2022-08-19T05:01:02;12.75;12.00;9.00
56495;PMS5003;42804;55.762;38.084;2022-08-19T05:03:30;11.00;9.50;6.50
56495;PMS5003;42804;55.762;38.084;2022-08-19T05:06:03;10.25;9.50;5.00
56495;PMS5003;42804;55.762;38.084;2022-08-19T05:08:35;13.50;13.00;10.50
56495;PMS5003;42804;55.762;38.084;2022-08-19T05:11:07;14.00;13.00;9.50
56495;PMS5003;42804;55.762;38.084;2022-08-19T05:13:39;14.25;13.25;10.00
56495;PMS5003;42804;55.762;38.084;2022-08-19T05:16:09;17.25;17.00;10.75
56495;PMS5003;42804;55.762;38.084;2022-08-19T05:18:37;11.75;11.75;9.50
56495;PMS5003;42804;55.762;38.084;2022-08-19T05:21:23;17.75;15.75;12.00
56495;PMS5003;42804;55.762;38.084;2022-08-19T05:24:12;15.00;15.00;9.50
56495;PMS5003;42804;55.762;38.084;2022-08-19T05:26:42;12.50;12.50;9.75
56495;PMS5003;42804;55.762;38.084;2022-08-19T05:29:12;14.25;13.00;10.00
56495;PMS5003;42804;55.762;38.084;2022-08-19T05:31:41;14.75;13.75;9.50
56495;PMS5003;42804;55.762;38.084;2022-08-19T05:34:09;17.00;15.50;10.75
56495;PMS5003;42804;55.762;38.084;2022-08-19T05:36:46;17.00;17.00;11.25
56495;PMS5003;42804;55.762;38.084;2022-08-19T05:39:16;17.25;15.50;12.25
56495;PMS5003;42804;55.762;38.084;2022-08-19T05:41:45;10.50;10.50;9.50
56495;PMS5003;42804;55.762;38.084;2022-08-19T05:44:14;13.50;12.75;9.25
56495;PMS5003;42804;55.762;38.084;2022-08-19T05:46:43;14.75;14.00;9.75
56495;PMS5003;42804;55.762;38.084;2022-08-19T05:49:14;16.50;16.00;10.25
56495;PMS5003;42804;55.762;38.084;2022-08-19T05:51:43;17.50;16.75;11.00
56495;PMS5003;42804;55.762;38.084;2022-08-19T05:54:12;11.50;11.50;8.50
56495;PMS5003;42804;55.762;38.084;2022-08-19T05:56:42;19.00;17.25;12.25
56495;PMS5003;42804;55.762;38.084;2022-08-19T05:59:11;13.75;12.75;9.00
56495;PMS5003;42804;55.762;38.084;2022-08-19T06:01:40;16.50;15.50;12.00
56495;PMS5003;42804;55.762;38.084;2022-08-19T06:04:08;14.00;13.00;10.75
56495;PMS5003;42804;55.762;38.084;2022-08-19T06:06:36;13.00;12.75;9.00
56495;PMS5003;42804;55.762;38.084;2022-08-19T06:09:05;18.50;16.50;10.50
56495;PMS5003;42804;55.762;38.084;2022-08-19T06:11:37;9.75;9.25;7.25
56495;PMS5003;42804;55.762;38.084;2022-08-19T06:14:07;11.25;11.25;7.00
56495;PMS5003;42804;55.762;38.084;2022-08-19T06:16:42;14.25;13.25;10.50
56495;PMS5003;42804;55.762;38.084;2022-08-19T06:19:12;13.25;13.25;10.50
56495;PMS5003;42804;55.762;38.084;2022-08-19T06:21:42;14.00;13.25;9.75
56495;PMS5003;42804;55.762;38.084;2022-08-19T06:24:11;15.50;14.75;11.00
56495;PMS5003;42804;55.762;38.084;2022-08-19T06:26:40;12.00;11.75;9.75
56495;PMS5003;42804;55.762;38.084;2022-08-19T06:29:11;14.00;12.50;8.75
56495;PMS5003;42804;55.762;38.084;2022-08-19T06:31:50;14.00;14.00;10.50
56495;PMS5003;42804;55.762;38.084;2022-08-19T06:34:18;13.25;12.50;8.25
56495;PMS5003;42804;55.762;38.084;2022-08-19T06:36:47;16.00;14.25;9.25
56495;PMS5003;42804;55.762;38.084;2022-08-19T06:39:16;13.50;13.50;10.00
56495;PMS5003;42804;55.762;38.084;2022-08-19T06:41:46;17.00;15.50;10.50
56495;PMS5003;42804;55.762;38.084;2022-08-19T06:44:20;16.25;15.75;12.00
56495;PMS5003;42804;55.762;38.084;2022-08-19T06:46:51;12.50;11.75;9.50
56495;PMS5003;42804;55.762;38.084;2022-08-19T06:49:20;16.25;15.25;12.25
56495;PMS5003;42804;55.762;38.084;2022-08-19T06:51:49;16.00;16.00;11.00
56495;PMS5003;42804;55.762;38.084;2022-08-19T06:54:18;14.00;14.00;10.00
56495;PMS5003;42804;55.762;38.084;2022-08-19T06:56:46;14.50;13.50;10.00
56495;PMS5003;42804;55.762;38.084;2022-08-19T06:59:16;11.00;10.25;8.00
56495;PMS5003;42804;55.762;38.084;2022-08-19T07:01:46;15.75;15.75;11.50
56495;PMS5003;42804;55.762;38.084;2022-08-19T07:04:16;18.75;18.50;13.25
56495;PMS5003;42804;55.762;38.084;2022-08-19T07:06:44;13.75;13.75;9.00
56495;PMS5003;42804;55.762;38.084;2022-08-19T07:09:21;21.25;19.50;14.75
56495;PMS5003;42804;55.762;38.084;2022-08-19T07:11:51;15.75;15.25;9.50
56495;PMS5003;42804;55.762;38.084;2022-08-19T07:14:21;16.50;16.25;12.25
56495;PMS5003;42804;55.762;38.084;2022-08-19T07:16:54;10.00;9.50;7.00
56495;PMS5003;42804;55.762;38.084;2022-08-19T07:19:23;19.25;18.50;13.00
56495;PMS5003;42804;55.762;38.084;2022-08-19T07:21:53;14.75;13.25;9.00
56495;PMS5003;42804;55.762;38.084;2022-08-19T07:24:23;16.75;15.75;12.00
56495;PMS5003;42804;55.762;38.084;2022-08-19T07:26:56;16.00;15.75;11.75
56495;PMS5003;42804;55.762;38.084;2022-08-19T07:29:29;12.75;11.75;9.25
56495;PMS5003;42804;55.762;38.084;2022-08-19T07:32:03;18.25;17.50;11.00
56495;PMS5003;42804;55.762;38.084;2022-08-19T07:34:37;14.00;13.25;9.75
56495;PMS5003;42804;55.762;38.084;2022-08-19T07:37:06;21.00;20.00;13.00
56495;PMS5003;42804;55.762;38.084;2022-08-19T07:39:35;16.25;15.75;10.75
56495;PMS5003;42804;55.762;38.084;2022-08-19T07:42:04;14.50;14.50;10.75
56495;PMS5003;42804;55.762;38.084;2022-08-19T07:44:33;10.75;9.50;7.00
56495;PMS5003;42804;55.762;38.084;2022-08-19T07:47:03;11.50;11.25;6.25
56495;PMS5003;42804;55.762;38.084;2022-08-19T07:49:31;9.75;9.50;7.50
56495;PMS5003;42804;55.762;38.084;2022-08-19T07:52:03;10.25;10.00;8.25
56495;PMS5003;42804;55.762;38.084;2022-08-19T07:54:32;11.75;11.00;8.75
56495;PMS5003;42804;55.762;38.084;2022-08-19T07:57:02;14.50;14.00;10.25
56495;PMS5003;42804;55.762;38.084;2022-08-19T07:59:30;14.75;14.75;10.50
56495;PMS5003;42804;55.762;38.084;2022-08-19T08:01:59;11.25;11.00;8.00
56495;PMS5003;42804;55.762;38.084;2022-08-19T08:04:30;14.75;13.25;9.00
56495;PMS5003;42804;55.762;38.084;2022-08-19T08:07:16;9.00;9.00;6.00
56495;PMS5003;42804;55.762;38.084;2022-08-19T08:10:03;9.75;9.50;5.75
56495;PMS5003;42804;55.762;38.084;2022-08-19T08:12:40;13.25;12.75;8.75
56495;PMS5003;42804;55.762;38.084;2022-08-19T08:15:28;12.25;12.25;9.50
56495;PMS5003;42804;55.762;38.084;2022-08-19T08:17:56;12.25;11.50;7.75
56495;PMS5003;42804;55.762;38.084;2022-08-19T08:20:26;14.00;13.00;8.25
56495;PMS5003;42804;55.762;38.084;2022-08-19T08:22:55;11.50;8.75;7.75
56495;PMS5003;42804;55.762;38.084;2022-08-19T08:25:40;10.50;10.50;8.00
56495;PMS5003;42804;55.762;38.084;2022-08-19T08:28:08;8.25;8.25;6.50
56495;PMS5003;42804;55.762;38.084;2022-08-19T08:30:43;7.25;6.75;6.25
56495;PMS5003;42804;55.762;38.084;2022-08-19T08:33:12;10.25;10.00;7.00
56495;PMS5003;42804;55.762;38.084;2022-08-19T08:35:43;9.00;8.25;6.25
56495;PMS5003;42804;55.762;38.084;2022-08-19T08:38:12;10.25;9.25;6.50
56495;PMS5003;42804;55.762;38.084;2022-08-19T08:40:43;14.00;13.75;9.00
56495;PMS5003;42804;55.762;38.084;2022-08-19T08:43:15;11.25;11.25;9.00
56495;PMS5003;42804;55.762;38.084;2022-08-19T08:45:49;12.25;11.00;9.50
56495;PMS5003;42804;55.762;38.084;2022-08-19T08:48:20;13.00;12.75;9.00
56495;PMS5003;42804;55.762;38.084;2022-08-19T08:50:51;9.00;9.00;6.00
56495;PMS5003;42804;55.762;38.084;2022-08-19T08:53:22;7.00;7.00;4.50
56495;PMS5003;42804;55.762;38.084;2022-08-19T08:55:55;8.00;6.75;3.75
56495;PMS5003;42804;55.762;38.084;2022-08-19T08:58:25;6.50;6.50;4.25
56495;PMS5003;42804;55.762;38.084;2022-08-19T09:00:57;6.50;5.00;3.25
56495;PMS5003;42804;55.762;38.084;2022-08-19T09:03:26;7.75;7.50;4.00
56495;PMS5003;42804;55.762;38.084;2022-08-19T09:06:00;8.00;8.00;5.75
56495;PMS5003;42804;55.762;38.084;2022-08-19T09:08:39;11.00;10.25;7.00
56495;PMS5003;42804;55.762;38.084;2022-08-19T09:11:10;4.75;3.75;2.00
56495;PMS5003;42804;55.762;38.084;2022-08-19T09:14:04;9.50;8.75;6.00
56495;PMS5003;42804;55.762;38.084;2022-08-19T09:16:44;8.25;8.00;6.00
56495;PMS5003;42804;55.762;38.084;2022-08-19T09:19:12;7.75;6.75;5.25
56495;PMS5003;42804;55.762;38.084;2022-08-19T09:21:49;9.00;9.00;6.75
56495;PMS5003;42804;55.762;38.084;2022-08-19T09:24:18;6.50;6.25;5.00
56495;PMS5003;42804;55.762;38.084;2022-08-19T09:26:46;7.25;7.25;5.00
56495;PMS5003;42804;55.762;38.084;2022-08-19T09:29:18;4.50;4.50;4.00
56495;PMS5003;42804;55.762;38.084;2022-08-19T09:31:48;6.00;6.00;4.25
56495;PMS5003;42804;55.762;38.084;2022-08-19T09:34:17;4.00;4.00;3.25
56495;PMS5003;42804;55.762;38.084;2022-08-19T09:36:49;7.50;7.50;5.00
56495;PMS5003;42804;55.762;38.084;2022-08-19T09:39:21;6.25;5.00;3.50
56495;PMS5003;42804;55.762;38.084;2022-08-19T09:41:49;6.00;6.00;4.00
56495;PMS5003;42804;55.762;38.084;2022-08-19T09:44:17;6.50;6.25;4.75
56495;PMS5003;42804;55.762;38.084;2022-08-19T09:46:47;5.00;4.00;3.00
56495;PMS5003;42804;55.762;38.084;2022-08-19T09:49:16;7.25;6.75;4.50
56495;PMS5003;42804;55.762;38.084;2022-08-19T09:51:46;5.50;5.50;4.50
56495;PMS5003;42804;55.762;38.084;2022-08-19T09:54:18;8.00;8.00;6.00
56495;PMS5003;42804;55.762;38.084;2022-08-19T09:56:50;8.50;7.50;4.25
56495;PMS5003;42804;55.762;38.084;2022-08-19T09:59:19;2.50;2.50;1.25
56495;PMS5003;42804;55.762;38.084;2022-08-19T10:01:47;6.00;6.00;4.50
56495;PMS5003;42804;55.762;38.084;2022-08-19T10:04:15;7.50;6.75;5.00
56495;PMS5003;42804;55.762;38.084;2022-08-19T10:06:47;7.75;7.00;5.00
56495;PMS5003;42804;55.762;38.084;2022-08-19T10:09:20;6.75;6.25;4.25
56495;PMS5003;42804;55.762;38.084;2022-08-19T10:11:59;5.00;5.00;3.75
56495;PMS5003;42804;55.762;38.084;2022-08-19T10:14:28;6.25;5.75;4.00
56495;PMS5003;42804;55.762;38.084;2022-08-19T10:16:56;6.50;6.50;3.50
56495;PMS5003;42804;55.762;38.084;2022-08-19T10:19:43;7.50;7.50;5.50
56495;PMS5003;42804;55.762;38.084;2022-08-19T10:22:21;6.75;6.50;5.00
56495;PMS5003;42804;55.762;38.084;2022-08-19T10:24:52;6.00;6.00;4.00
56495;PMS5003;42804;55.762;38.084;2022-08-19T10:27:21;4.00;3.50;2.00
56495;PMS5003;42804;55.762;38.084;2022-08-19T10:29:51;6.25;6.00;4.00
56495;PMS5003;42804;55.762;38.084;2022-08-19T10:32:20;5.00;5.00;3.75
56495;PMS5003;42804;55.762;38.084;2022-08-19T10:35:00;5.00;5.00;2.75
56495;PMS5003;42804;55.762;38.084;2022-08-19T10:37:31;8.50;6.75;4.00
56495;PMS5003;42804;55.762;38.084;2022-08-19T10:40:02;6.00;6.00;4.00
56495;PMS5003;42804;55.762;38.084;2022-08-19T10:42:31;6.00;6.00;4.25
56495;PMS5003;42804;55.762;38.084;2022-08-19T10:44:59;5.00;4.75;3.00
56495;PMS5003;42804;55.762;38.084;2022-08-19T10:47:30;6.75;6.25;4.00
56495;PMS5003;42804;55.762;38.084;2022-08-19T10:49:58;7.00;7.00;5.50
56495;PMS5003;42804;55.762;38.084;2022-08-19T10:52:44;4.75;4.75;2.50
56495;PMS5003;42804;55.762;38.084;2022-08-19T10:55:17;6.60;6.20;4.00
56495;PMS5003;42804;55.762;38.084;2022-08-19T10:58:04;3.40;2.80;1.00
56495;PMS5003;42804;55.762;38.084;2022-08-19T11:00:36;4.75;4.00;2.00
56495;PMS5003;42804;55.762;38.084;2022-08-19T11:03:04;5.60;5.00;3.00
56495;PMS5003;42804;55.762;38.084;2022-08-19T11:05:35;6.00;5.00;3.20
56495;PMS5003;42804;55.762;38.084;2022-08-19T11:08:06;7.25;7.00;5.00
56495;PMS5003;42804;55.762;38.084;2022-08-19T11:10:51;7.25;6.00;3.50
56495;PMS5003;42804;55.762;38.084;2022-08-19T11:13:26;7.50;7.50;4.75
56495;PMS5003;42804;55.762;38.084;2022-08-19T11:15:57;6.50;6.50;5.00
56495;PMS5003;42804;55.762;38.084;2022-08-19T11:18:34;6.25;5.50;3.50
56495;PMS5003;42804;55.762;38.084;2022-08-19T11:21:07;6.00;6.00;4.00
56495;PMS5003;42804;55.762;38.084;2022-08-19T11:23:36;5.75;5.25;4.00
56495;PMS5003;42804;55.762;38.084;2022-08-19T11:26:06;3.75;3.75;2.00
56495;PMS5003;42804;55.762;38.084;2022-08-19T11:28:34;7.00;6.00;5.25
56495;PMS5003;42804;55.762;38.084;2022-08-19T11:31:02;8.25;8.25;5.50
56495;PMS5003;42804;55.762;38.084;2022-08-19T11:33:31;6.00;5.75;4.00
56495;PMS5003;42804;55.762;38.084;2022-08-19T11:35:59;8.50;8.25;5.50
56495;PMS5003;42804;55.762;38.084;2022-08-19T11:38:28;8.00;7.75;6.00
56495;PMS5003;42804;55.762;38.084;2022-08-19T11:40:57;4.50;4.50;3.75
56495;PMS5003;42804;55.762;38.084;2022-08-19T11:43:27;5.50;5.50;4.00
56495;PMS5003;42804;55.762;38.084;2022-08-19T11:46:03;3.00;2.50;2.00
56495;PMS5003;42804;55.762;38.084;2022-08-19T11:48:32;7.75;7.75;5.50
56495;PMS5003;42804;55.762;38.084;2022-08-19T11:51:02;6.75;6.00;5.00
56495;PMS5003;42804;55.762;38.084;2022-08-19T11:53:33;4.75;4.75;4.00
56495;PMS5003;42804;55.762;38.084;2022-08-19T11:56:02;1.50;1.50;0.50
56495;PMS5003;42804;55.762;38.084;2022-08-19T11:58:32;7.50;6.50;4.25
56495;PMS5003;42804;55.762;38.084;2022-08-19T12:01:00;7.25;7.25;6.00
56495;PMS5003;42804;55.762;38.084;2022-08-19T12:03:29;6.75;6.75;5.50
56495;PMS5003;42804;55.762;38.084;2022-08-19T12:05:57;7.00;6.00;4.00
56495;PMS5003;42804;55.762;38.084;2022-08-19T12:08:25;8.40;8.20;5.20
56495;PMS5003;42804;55.762;38.084;2022-08-19T12:10:54;6.25;6.00;4.50
56495;PMS5003;42804;55.762;38.084;2022-08-19T12:13:23;8.75;8.00;6.00
56495;PMS5003;42804;55.762;38.084;2022-08-19T12:15:52;9.50;9.00;7.00
56495;PMS5003;42804;55.762;38.084;2022-08-19T12:18:21;9.00;8.80;5.40
56495;PMS5003;42804;55.762;38.084;2022-08-19T12:20:50;7.25;7.25;5.00
56495;PMS5003;42804;55.762;38.084;2022-08-19T12:23:18;5.00;5.00;3.50
56495;PMS5003;42804;55.762;38.084;2022-08-19T12:25:47;7.25;6.75;4.00
56495;PMS5003;42804;55.762;38.084;2022-08-19T12:28:20;6.00;6.00;4.00
56495;PMS5003;42804;55.762;38.084;2022-08-19T12:30:48;8.25;7.50;5.50
56495;PMS5003;42804;55.762;38.084;2022-08-19T12:33:19;8.00;6.20;4.20
56495;PMS5003;42804;55.762;38.084;2022-08-19T12:35:50;5.50;5.00;2.50
56495;PMS5003;42804;55.762;38.084;2022-08-19T12:38:18;8.40;8.40;6.40
56495;PMS5003;42804;55.762;38.084;2022-08-19T12:40:48;8.50;8.00;4.75
56495;PMS5003;42804;55.762;38.084;2022-08-19T12:43:23;6.00;6.00;3.20
56495;PMS5003;42804;55.762;38.084;2022-08-19T12:45:52;9.50;9.50;6.25
56495;PMS5003;42804;55.762;38.084;2022-08-19T12:48:22;8.25;7.25;5.50
56495;PMS5003;42804;55.762;38.084;2022-08-19T12:51:00;6.40;5.40;3.60
56495;PMS5003;42804;55.762;38.084;2022-08-19T12:53:28;6.25;6.25;3.50
56495;PMS5003;42804;55.762;38.084;2022-08-19T12:55:56;7.50;7.25;4.50
56495;PMS5003;42804;55.762;38.084;2022-08-19T12:58:26;6.75;6.75;6.00
56495;PMS5003;42804;55.762;38.084;2022-08-19T13:00:55;6.20;6.20;4.60
56495;PMS5003;42804;55.762;38.084;2022-08-19T13:03:25;7.25;7.00;4.00
56495;PMS5003;42804;55.762;38.084;2022-08-19T13:05:55;8.75;8.00;5.75
56495;PMS5003;42804;55.762;38.084;2022-08-19T13:08:24;10.25;9.25;8.00
56495;PMS5003;42804;55.762;38.084;2022-08-19T13:10:52;9.00;7.25;4.50
56495;PMS5003;42804;55.762;38.084;2022-08-19T13:13:22;10.50;10.25;8.50
56495;PMS5003;42804;55.762;38.084;2022-08-19T13:15:52;9.25;8.25;5.25
56495;PMS5003;42804;55.762;38.084;2022-08-19T13:18:30;9.00;8.00;5.50
56495;PMS5003;42804;55.762;38.084;2022-08-19T13:21:01;11.50;10.50;7.00
56495;PMS5003;42804;55.762;38.084;2022-08-19T13:23:30;10.00;9.00;6.50
56495;PMS5003;42804;55.762;38.084;2022-08-19T13:25:58;10.25;10.25;7.00
56495;PMS5003;42804;55.762;38.084;2022-08-19T13:28:27;10.75;10.50;8.00
56495;PMS5003;42804;55.762;38.084;2022-08-19T13:31:20;11.25;11.25;7.75
56495;PMS5003;42804;55.762;38.084;2022-08-19T13:34:10;8.75;8.25;6.75
56495;PMS5003;42804;55.762;38.084;2022-08-19T13:36:39;10.25;9.75;7.00
56495;PMS5003;42804;55.762;38.084;2022-08-19T13:39:07;7.00;7.00;6.00
56495;PMS5003;42804;55.762;38.084;2022-08-19T13:41:35;8.50;8.50;7.25
56495;PMS5003;42804;55.762;38.084;2022-08-19T13:44:04;10.75;10.75;9.00
56495;PMS5003;42804;55.762;38.084;2022-08-19T13:46:33;7.25;7.00;6.00
56495;PMS5003;42804;55.762;38.084;2022-08-19T13:49:01;9.00;9.00;7.00
56495;PMS5003;42804;55.762;38.084;2022-08-19T13:51:32;9.25;9.00;7.75
56495;PMS5003;42804;55.762;38.084;2022-08-19T13:54:00;10.50;10.50;7.75
56495;PMS5003;42804;55.762;38.084;2022-08-19T13:56:28;12.50;12.50;9.00
56495;PMS5003;42804;55.762;38.084;2022-08-19T13:58:56;9.00;9.00;5.25
56495;PMS5003;42804;55.762;38.084;2022-08-19T14:01:25;12.50;12.00;9.00
56495;PMS5003;42804;55.762;38.084;2022-08-19T14:03:54;8.25;8.25;6.00
56495;PMS5003;42804;55.762;38.084;2022-08-19T14:06:22;9.25;9.25;7.00
56495;PMS5003;42804;55.762;38.084;2022-08-19T14:08:53;10.25;10.25;9.00